sensor_id;sensor_type;location;lat;lon;timestamp;temperature;humidity
71647;SHT31;59706;45.634;11.704;2023-05-10T11:53:58;18.57;67.07
71647;SHT31;59706;45.634;11.704;2023-05-10T11:56:25;18.16;67.84
71647;SHT31;59706;45.634;11.704;2023-05-10T11:58:56;17.75;68.89
71647;SHT31;59706;45.634;11.704;2023-05-10T12:01:46;17.45;69.85
71647;SHT31;59706;45.634;11.704;2023-05-10T12:04:13;17.28;70.53
71647;SHT31;59706;45.634;11.704;2023-05-10T12:06:40;17.15;71.23
71647;SHT31;59706;45.634;11.704;2023-05-10T12:09:07;17.00;71.56
71647;SHT31;59706;45.634;11.704;2023-05-10T12:11:36;16.87;71.92
71647;SHT31;59706;45.634;11.704;2023-05-10T12:14:05;16.78;72.32
71647;SHT31;59706;45.634;11.704;2023-05-10T12:16:35;16.69;72.67
71647;SHT31;59706;45.634;11.704;2023-05-10T12:19:02;16.61;73.18
71647;SHT31;59706;45.634;11.704;2023-05-10T12:21:30;16.55;73.41
71647;SHT31;59706;45.634;11.704;2023-05-10T12:24:03;16.52;73.75
71647;SHT31;59706;45.634;11.704;2023-05-10T12:26:31;16.51;73.97
71647;SHT31;59706;45.634;11.704;2023-05-10T12:29:12;16.51;74.22
71647;SHT31;59706;45.634;11.704;2023-05-10T12:31:49;16.51;73.92
71647;SHT31;59706;45.634;11.704;2023-05-10T12:34:29;16.50;74.09
71647;SHT31;59706;45.634;11.704;2023-05-10T12:36:58;16.45;74.03
71647;SHT31;59706;45.634;11.704;2023-05-10T12:39:26;16.45;74.20
71647;SHT31;59706;45.634;11.704;2023-05-10T12:42:07;16.39;74.48
71647;SHT31;59706;45.634;11.704;2023-05-10T12:44:35;16.33;74.71
71647;SHT31;59706;45.634;11.704;2023-05-10T12:47:02;16.27;74.61
71647;SHT31;59706;45.634;11.704;2023-05-10T12:49:29;16.25;74.67
71647;SHT31;59706;45.634;11.704;2023-05-10T12:51:57;16.24;75.01
71647;SHT31;59706;45.634;11.704;2023-05-10T12:54:25;16.25;74.84
71647;SHT31;59706;45.634;11.704;2023-05-10T12:56:52;16.22;75.05
71647;SHT31;59706;45.634;11.704;2023-05-10T12:59:20;16.20;75.41
71647;SHT31;59706;45.634;11.704;2023-05-10T13:01:47;16.19;75.69
71647;SHT31;59706;45.634;11.704;2023-05-10T13:04:15;16.14;75.73
71647;SHT31;59706;45.634;11.704;2023-05-10T13:06:42;16.11;75.90
71647;SHT31;59706;45.634;11.704;2023-05-10T13:09:10;16.12;75.77
71647;SHT31;59706;45.634;11.704;2023-05-10T13:11:37;16.15;75.63
71647;SHT31;59706;45.634;11.704;2023-05-10T13:14:05;16.18;75.91
71647;SHT31;59706;45.634;11.704;2023-05-10T13:16:32;16.20;76.01
71647;SHT31;59706;45.634;11.704;2023-05-10T13:19:00;16.21;76.12
71647;SHT31;59706;45.634;11.704;2023-05-10T13:21:28;16.22;76.27
71647;SHT31;59706;45.634;11.704;2023-05-10T13:23:55;16.20;76.35
71647;SHT31;59706;45.634;11.704;2023-05-10T13:26:23;16.19;76.64
71647;SHT31;59706;45.634;11.704;2023-05-10T13:28:51;16.18;76.63
71647;SHT31;59706;45.634;11.704;2023-05-10T13:31:20;16.19;76.57
71647;SHT31;59706;45.634;11.704;2023-05-10T13:33:47;16.21;76.69
71647;SHT31;59706;45.634;11.704;2023-05-10T13:36:14;16.22;76.66
71647;SHT31;59706;45.634;11.704;2023-05-10T13:38:42;16.25;76.55
71647;SHT31;59706;45.634;11.704;2023-05-10T13:41:10;16.22;76.60
71647;SHT31;59706;45.634;11.704;2023-05-10T13:43:37;16.23;76.59
71647;SHT31;59706;45.634;11.704;2023-05-10T13:46:05;16.24;76.70
71647;SHT31;59706;45.634;11.704;2023-05-10T13:48:32;16.25;76.89
71647;SHT31;59706;45.634;11.704;2023-05-10T13:51:01;16.27;76.81
71647;SHT31;59706;45.634;11.704;2023-05-10T13:53:29;16.32;77.07
71647;SHT31;59706;45.634;11.704;2023-05-10T13:55:56;16.32;77.26
71647;SHT31;59706;45.634;11.704;2023-05-10T13:58:24;16.31;77.20
71647;SHT31;59706;45.634;11.704;2023-05-10T14:00:51;16.31;77.06
71647;SHT31;59706;45.634;11.704;2023-05-10T14:03:19;16.28;77.13
71647;SHT31;59706;45.634;11.704;2023-05-10T14:05:46;16.25;77.13
71647;SHT31;59706;45.634;11.704;2023-05-10T14:08:13;16.19;77.22
71647;SHT31;59706;45.634;11.704;2023-05-10T14:10:40;16.20;77.35
71647;SHT31;59706;45.634;11.704;2023-05-10T14:13:08;16.20;77.50
71647;SHT31;59706;45.634;11.704;2023-05-10T14:15:36;16.22;77.50
71647;SHT31;59706;45.634;11.704;2023-05-10T14:18:03;16.21;77.52
71647;SHT31;59706;45.634;11.704;2023-05-10T14:20:31;16.20;77.66
71647;SHT31;59706;45.634;11.704;2023-05-10T14:22:59;16.18;77.52
71647;SHT31;59706;45.634;11.704;2023-05-10T14:25:26;16.14;77.66
71647;SHT31;59706;45.634;11.704;2023-05-10T14:27:53;16.13;77.64
71647;SHT31;59706;45.634;11.704;2023-05-10T14:30:20;16.16;77.68
71647;SHT31;59706;45.634;11.704;2023-05-10T14:32:48;16.21;77.69
71647;SHT31;59706;45.634;11.704;2023-05-10T14:35:15;16.23;77.56
71647;SHT31;59706;45.634;11.704;2023-05-10T14:37:42;16.30;77.52
71647;SHT31;59706;45.634;11.704;2023-05-10T14:40:09;16.31;77.37
71647;SHT31;59706;45.634;11.704;2023-05-10T14:42:40;16.28;77.36
71647;SHT31;59706;45.634;11.704;2023-05-10T14:45:08;16.27;77.32
71647;SHT31;59706;45.634;11.704;2023-05-10T14:47:37;16.27;77.30
71647;SHT31;59706;45.634;11.704;2023-05-10T14:50:04;16.25;77.40
71647;SHT31;59706;45.634;11.704;2023-05-10T14:52:35;16.26;77.45
71647;SHT31;59706;45.634;11.704;2023-05-10T14:55:03;16.29;77.39
71647;SHT31;59706;45.634;11.704;2023-05-10T14:57:34;16.29;77.34
71647;SHT31;59706;45.634;11.704;2023-05-10T15:00:00;16.29;77.42
71647;SHT31;59706;45.634;11.704;2023-05-10T15:02:28;16.26;77.44
71647;SHT31;59706;45.634;11.704;2023-05-10T15:04:57;16.21;77.59
71647;SHT31;59706;45.634;11.704;2023-05-10T15:07:24;16.21;77.60
71647;SHT31;59706;45.634;11.704;2023-05-10T15:09:51;16.22;77.69
71647;SHT31;59706;45.634;11.704;2023-05-10T15:12:18;16.24;77.69
71647;SHT31;59706;45.634;11.704;2023-05-10T15:14:45;16.25;77.71
71647;SHT31;59706;45.634;11.704;2023-05-10T15:17:13;16.28;77.74
71647;SHT31;59706;45.634;11.704;2023-05-10T15:19:41;16.29;77.72
71647;SHT31;59706;45.634;11.704;2023-05-10T15:22:07;16.32;77.84
71647;SHT31;59706;45.634;11.704;2023-05-10T15:24:34;16.31;77.85
71647;SHT31;59706;45.634;11.704;2023-05-10T15:27:01;16.28;77.92
71647;SHT31;59706;45.634;11.704;2023-05-10T15:29:29;16.27;77.85
71647;SHT31;59706;45.634;11.704;2023-05-10T15:31:56;16.29;77.82
71647;SHT31;59706;45.634;11.704;2023-05-10T15:34:23;16.31;77.88
71647;SHT31;59706;45.634;11.704;2023-05-10T15:36:50;16.32;77.77
71647;SHT31;59706;45.634;11.704;2023-05-10T15:39:17;16.34;77.64
71647;SHT31;59706;45.634;11.704;2023-05-10T15:41:44;16.34;77.59
71647;SHT31;59706;45.634;11.704;2023-05-10T15:44:12;16.34;77.57
71647;SHT31;59706;45.634;11.704;2023-05-10T15:46:39;16.33;77.72
71647;SHT31;59706;45.634;11.704;2023-05-10T15:49:06;16.30;77.69
71647;SHT31;59706;45.634;11.704;2023-05-10T15:51:32;16.27;77.81
71647;SHT31;59706;45.634;11.704;2023-05-10T15:53:59;16.27;77.92
71647;SHT31;59706;45.634;11.704;2023-05-10T15:56:27;16.30;77.91
71647;SHT31;59706;45.634;11.704;2023-05-10T15:58:55;16.32;77.83
71647;SHT31;59706;45.634;11.704;2023-05-10T16:01:22;16.33;77.69
71647;SHT31;59706;45.634;11.704;2023-05-10T16:03:49;16.33;77.70
71647;SHT31;59706;45.634;11.704;2023-05-10T16:06:16;16.33;77.71
71647;SHT31;59706;45.634;11.704;2023-05-10T16:08:43;16.31;77.81
71647;SHT31;59706;45.634;11.704;2023-05-10T16:11:11;16.29;77.82
71647;SHT31;59706;45.634;11.704;2023-05-10T16:13:38;16.27;77.74
71647;SHT31;59706;45.634;11.704;2023-05-10T16:16:05;16.28;77.79
71647;SHT31;59706;45.634;11.704;2023-05-10T16:18:34;16.30;77.87
71647;SHT31;59706;45.634;11.704;2023-05-10T16:21:01;16.35;77.65
71647;SHT31;59706;45.634;11.704;2023-05-10T16:23:28;16.35;77.47
71647;SHT31;59706;45.634;11.704;2023-05-10T16:25:55;16.33;77.68
71647;SHT31;59706;45.634;11.704;2023-05-10T16:28:22;16.28;77.73
71647;SHT31;59706;45.634;11.704;2023-05-10T16:30:50;16.24;77.93
71647;SHT31;59706;45.634;11.704;2023-05-10T16:33:17;16.22;78.11
71647;SHT31;59706;45.634;11.704;2023-05-10T16:35:44;16.22;78.14
71647;SHT31;59706;45.634;11.704;2023-05-10T16:38:11;16.23;78.14
71647;SHT31;59706;45.634;11.704;2023-05-10T16:40:38;16.26;78.14
71647;SHT31;59706;45.634;11.704;2023-05-10T16:43:06;16.28;78.15
71647;SHT31;59706;45.634;11.704;2023-05-10T16:45:33;16.29;77.89
71647;SHT31;59706;45.634;11.704;2023-05-10T16:48:00;16.29;77.97
71647;SHT31;59706;45.634;11.704;2023-05-10T16:50:27;16.27;78.12
71647;SHT31;59706;45.634;11.704;2023-05-10T16:52:54;16.27;78.07
71647;SHT31;59706;45.634;11.704;2023-05-10T16:55:21;16.26;78.10
71647;SHT31;59706;45.634;11.704;2023-05-10T16:57:49;16.25;78.14
71647;SHT31;59706;45.634;11.704;2023-05-10T17:00:16;16.25;78.29
71647;SHT31;59706;45.634;11.704;2023-05-10T17:02:44;16.27;78.23
71647;SHT31;59706;45.634;11.704;2023-05-10T17:05:12;16.28;78.17
71647;SHT31;59706;45.634;11.704;2023-05-10T17:07:39;16.27;78.10
71647;SHT31;59706;45.634;11.704;2023-05-10T17:10:06;16.27;78.07
71647;SHT31;59706;45.634;11.704;2023-05-10T17:12:36;16.25;78.01
71647;SHT31;59706;45.634;11.704;2023-05-10T17:15:04;16.23;77.91
71647;SHT31;59706;45.634;11.704;2023-05-10T17:17:35;16.18;77.87
71647;SHT31;59706;45.634;11.704;2023-05-10T17:20:03;16.17;77.79
71647;SHT31;59706;45.634;11.704;2023-05-10T17:22:33;16.18;77.56
71647;SHT31;59706;45.634;11.704;2023-05-10T17:25:01;16.20;77.57
71647;SHT31;59706;45.634;11.704;2023-05-10T17:27:29;16.21;77.62
71647;SHT31;59706;45.634;11.704;2023-05-10T17:29:56;16.19;77.63
71647;SHT31;59706;45.634;11.704;2023-05-10T17:32:22;16.20;77.67
71647;SHT31;59706;45.634;11.704;2023-05-10T17:34:49;16.18;77.70
71647;SHT31;59706;45.634;11.704;2023-05-10T17:37:17;16.16;77.67
71647;SHT31;59706;45.634;11.704;2023-05-10T17:39:44;16.16;77.80
71647;SHT31;59706;45.634;11.704;2023-05-10T17:42:15;16.14;77.76
71647;SHT31;59706;45.634;11.704;2023-05-10T17:44:43;16.11;77.73
71647;SHT31;59706;45.634;11.704;2023-05-10T17:47:10;16.13;77.80
71647;SHT31;59706;45.634;11.704;2023-05-10T17:49:36;16.13;77.91
71647;SHT31;59706;45.634;11.704;2023-05-10T17:52:03;16.08;77.79
71647;SHT31;59706;45.634;11.704;2023-05-10T17:54:31;16.03;77.92
71647;SHT31;59706;45.634;11.704;2023-05-10T17:56:58;15.99;78.11
71647;SHT31;59706;45.634;11.704;2023-05-10T17:59:25;15.99;78.00
71647;SHT31;59706;45.634;11.704;2023-05-10T18:01:52;16.00;77.89
71647;SHT31;59706;45.634;11.704;2023-05-10T18:04:20;16.00;77.90
71647;SHT31;59706;45.634;11.704;2023-05-10T18:06:47;16.03;77.90
71647;SHT31;59706;45.634;11.704;2023-05-10T18:09:14;16.04;77.97
71647;SHT31;59706;45.634;11.704;2023-05-10T18:11:42;16.05;77.93
71647;SHT31;59706;45.634;11.704;2023-05-10T18:14:09;16.04;77.93
71647;SHT31;59706;45.634;11.704;2023-05-10T18:16:36;16.04;78.07
71647;SHT31;59706;45.634;11.704;2023-05-10T18:19:03;16.03;77.98
71647;SHT31;59706;45.634;11.704;2023-05-10T18:21:30;16.05;77.82
71647;SHT31;59706;45.634;11.704;2023-05-10T18:23:57;16.08;77.78
71647;SHT31;59706;45.634;11.704;2023-05-10T18:26:24;16.09;77.61
71647;SHT31;59706;45.634;11.704;2023-05-10T18:28:51;16.11;77.56
71647;SHT31;59706;45.634;11.704;2023-05-10T18:31:19;16.11;77.52
71647;SHT31;59706;45.634;11.704;2023-05-10T18:33:46;16.11;77.54
71647;SHT31;59706;45.634;11.704;2023-05-10T18:36:13;16.07;77.41
71647;SHT31;59706;45.634;11.704;2023-05-10T18:38:40;16.06;77.49
71647;SHT31;59706;45.634;11.704;2023-05-10T18:41:08;16.05;77.60
71647;SHT31;59706;45.634;11.704;2023-05-10T18:43:36;16.06;77.57
71647;SHT31;59706;45.634;11.704;2023-05-10T18:46:03;16.09;77.37
71647;SHT31;59706;45.634;11.704;2023-05-10T18:48:30;16.10;77.24
71647;SHT31;59706;45.634;11.704;2023-05-10T18:50:57;16.09;77.24
71647;SHT31;59706;45.634;11.704;2023-05-10T18:53:24;16.06;77.36
71647;SHT31;59706;45.634;11.704;2023-05-10T18:55:55;16.03;77.36
71647;SHT31;59706;45.634;11.704;2023-05-10T18:58:23;16.00;77.44
71647;SHT31;59706;45.634;11.704;2023-05-10T19:01:10;16.01;77.45
71647;SHT31;59706;45.634;11.704;2023-05-10T19:03:37;16.02;77.50
71647;SHT31;59706;45.634;11.704;2023-05-10T19:06:05;16.04;77.40
71647;SHT31;59706;45.634;11.704;2023-05-10T19:08:32;16.03;77.34
71647;SHT31;59706;45.634;11.704;2023-05-10T19:11:02;15.98;77.42
71647;SHT31;59706;45.634;11.704;2023-05-10T19:13:29;16.00;77.63
71647;SHT31;59706;45.634;11.704;2023-05-10T19:16:02;15.99;77.61
71647;SHT31;59706;45.634;11.704;2023-05-10T19:19:07;15.94;77.60
71647;SHT31;59706;45.634;11.704;2023-05-10T19:21:34;15.94;77.77
71647;SHT31;59706;45.634;11.704;2023-05-10T19:24:05;15.94;77.78
71647;SHT31;59706;45.634;11.704;2023-05-10T19:26:37;15.97;77.78
71647;SHT31;59706;45.634;11.704;2023-05-10T19:29:04;15.97;77.83
71647;SHT31;59706;45.634;11.704;2023-05-10T19:31:32;15.93;77.82
71647;SHT31;59706;45.634;11.704;2023-05-10T19:34:01;15.90;77.92
71647;SHT31;59706;45.634;11.704;2023-05-10T19:36:32;15.88;78.00
71647;SHT31;59706;45.634;11.704;2023-05-10T19:39:03;15.85;78.13
71647;SHT31;59706;45.634;11.704;2023-05-10T19:41:32;15.86;78.20
71647;SHT31;59706;45.634;11.704;2023-05-10T19:44:03;15.91;78.19
71647;SHT31;59706;45.634;11.704;2023-05-10T19:46:32;15.93;78.17
71647;SHT31;59706;45.634;11.704;2023-05-10T19:49:00;15.92;78.23
71647;SHT31;59706;45.634;11.704;2023-05-10T19:51:29;15.91;78.30
71647;SHT31;59706;45.634;11.704;2023-05-10T19:53:56;15.88;78.36
71647;SHT31;59706;45.634;11.704;2023-05-10T19:56:24;15.86;78.30
71647;SHT31;59706;45.634;11.704;2023-05-10T19:58:52;15.83;78.41
71647;SHT31;59706;45.634;11.704;2023-05-10T20:01:23;15.84;78.48
71647;SHT31;59706;45.634;11.704;2023-05-10T20:03:51;15.87;78.54
71647;SHT31;59706;45.634;11.704;2023-05-10T20:06:18;15.92;78.64
71647;SHT31;59706;45.634;11.704;2023-05-10T20:08:47;15.93;78.65
71647;SHT31;59706;45.634;11.704;2023-05-10T20:11:15;15.94;78.69
71647;SHT31;59706;45.634;11.704;2023-05-10T20:13:45;15.94;78.79
71647;SHT31;59706;45.634;11.704;2023-05-10T20:16:15;15.95;78.83
71647;SHT31;59706;45.634;11.704;2023-05-10T20:18:44;15.97;78.80
71647;SHT31;59706;45.634;11.704;2023-05-10T20:21:15;15.97;78.85
71647;SHT31;59706;45.634;11.704;2023-05-10T20:23:46;16.00;78.81
71647;SHT31;59706;45.634;11.704;2023-05-10T20:26:15;16.00;78.79
71647;SHT31;59706;45.634;11.704;2023-05-10T20:28:42;16.00;78.76
71647;SHT31;59706;45.634;11.704;2023-05-10T20:31:11;15.99;78.80
71647;SHT31;59706;45.634;11.704;2023-05-10T20:33:39;15.99;78.76
71647;SHT31;59706;45.634;11.704;2023-05-10T20:36:07;15.98;78.82
71647;SHT31;59706;45.634;11.704;2023-05-10T20:38:34;15.95;78.83
71647;SHT31;59706;45.634;11.704;2023-05-10T20:41:01;15.94;78.84
71647;SHT31;59706;45.634;11.704;2023-05-10T20:43:31;15.93;78.90
71647;SHT31;59706;45.634;11.704;2023-05-10T20:45:59;15.95;78.86
71647;SHT31;59706;45.634;11.704;2023-05-10T20:48:31;15.96;78.82
71647;SHT31;59706;45.634;11.704;2023-05-10T20:51:16;15.95;78.70
71647;SHT31;59706;45.634;11.704;2023-05-10T20:53:44;15.93;78.70
71647;SHT31;59706;45.634;11.704;2023-05-10T20:56:13;15.91;78.75
71647;SHT31;59706;45.634;11.704;2023-05-10T20:58:40;15.89;78.72
71647;SHT31;59706;45.634;11.704;2023-05-10T21:01:06;15.87;78.78
71647;SHT31;59706;45.634;11.704;2023-05-10T21:03:34;15.87;78.80
71647;SHT31;59706;45.634;11.704;2023-05-10T21:06:00;15.90;78.75
71647;SHT31;59706;45.634;11.704;2023-05-10T21:08:28;15.93;78.74
71647;SHT31;59706;45.634;11.704;2023-05-10T21:10:55;15.95;78.60
71647;SHT31;59706;45.634;11.704;2023-05-10T21:13:22;15.96;78.61
71647;SHT31;59706;45.634;11.704;2023-05-10T21:15:49;15.97;78.52
71647;SHT31;59706;45.634;11.704;2023-05-10T21:18:16;15.96;78.43
71647;SHT31;59706;45.634;11.704;2023-05-10T21:20:43;15.92;78.33
71647;SHT31;59706;45.634;11.704;2023-05-10T21:23:10;15.89;78.41
71647;SHT31;59706;45.634;11.704;2023-05-10T21:25:37;15.90;78.47
71647;SHT31;59706;45.634;11.704;2023-05-10T21:28:04;15.90;78.42
71647;SHT31;59706;45.634;11.704;2023-05-10T21:30:31;15.92;78.39
71647;SHT31;59706;45.634;11.704;2023-05-10T21:32:58;15.93;78.39
71647;SHT31;59706;45.634;11.704;2023-05-10T21:35:26;15.95;78.38
71647;SHT31;59706;45.634;11.704;2023-05-10T21:37:55;15.95;78.34
71647;SHT31;59706;45.634;11.704;2023-05-10T21:40:22;15.95;78.34
71647;SHT31;59706;45.634;11.704;2023-05-10T21:42:49;15.94;78.18
71647;SHT31;59706;45.634;11.704;2023-05-10T21:45:17;15.94;77.95
71647;SHT31;59706;45.634;11.704;2023-05-10T21:47:47;15.95;77.83
71647;SHT31;59706;45.634;11.704;2023-05-10T21:50:14;15.97;77.70
71647;SHT31;59706;45.634;11.704;2023-05-10T21:52:41;15.98;77.71
71647;SHT31;59706;45.634;11.704;2023-05-10T21:55:08;15.97;77.62
71647;SHT31;59706;45.634;11.704;2023-05-10T21:57:36;15.97;77.62
71647;SHT31;59706;45.634;11.704;2023-05-10T22:03:15;15.93;77.38
71647;SHT31;59706;45.634;11.704;2023-05-10T22:05:42;15.94;77.37
71647;SHT31;59706;45.634;11.704;2023-05-10T22:08:09;15.94;77.22
71647;SHT31;59706;45.634;11.704;2023-05-10T22:10:37;15.95;77.33
71647;SHT31;59706;45.634;11.704;2023-05-10T22:13:04;15.97;77.38
71647;SHT31;59706;45.634;11.704;2023-05-10T22:15:32;15.96;77.44
71647;SHT31;59706;45.634;11.704;2023-05-10T22:17:59;15.91;77.47
71647;SHT31;59706;45.634;11.704;2023-05-10T22:20:27;15.87;77.55
71647;SHT31;59706;45.634;11.704;2023-05-10T22:22:55;15.84;77.66
71647;SHT31;59706;45.634;11.704;2023-05-10T22:25:22;15.81;77.64
71647;SHT31;59706;45.634;11.704;2023-05-10T22:27:49;15.78;77.71
71647;SHT31;59706;45.634;11.704;2023-05-10T22:30:17;15.78;77.94
71647;SHT31;59706;45.634;11.704;2023-05-10T22:32:45;15.80;78.01
71647;SHT31;59706;45.634;11.704;2023-05-10T22:35:12;15.79;78.05
71647;SHT31;59706;45.634;11.704;2023-05-10T22:37:40;15.81;77.92
71647;SHT31;59706;45.634;11.704;2023-05-10T22:40:08;15.80;77.90
71647;SHT31;59706;45.634;11.704;2023-05-10T22:42:38;15.78;77.87
71647;SHT31;59706;45.634;11.704;2023-05-10T22:45:06;15.76;77.97
71647;SHT31;59706;45.634;11.704;2023-05-10T22:47:36;15.76;78.12
71647;SHT31;59706;45.634;11.704;2023-05-10T22:50:03;15.78;78.16
71647;SHT31;59706;45.634;11.704;2023-05-10T22:52:36;15.80;78.20
71647;SHT31;59706;45.634;11.704;2023-05-10T22:55:03;15.80;78.14
71647;SHT31;59706;45.634;11.704;2023-05-10T22:57:33;15.78;78.10
71647;SHT31;59706;45.634;11.704;2023-05-10T22:59:59;15.75;78.22
71647;SHT31;59706;45.634;11.704;2023-05-10T23:02:28;15.72;78.23
71647;SHT31;59706;45.634;11.704;2023-05-10T23:04:56;15.67;78.20
71647;SHT31;59706;45.634;11.704;2023-05-10T23:07:23;15.69;78.18
71647;SHT31;59706;45.634;11.704;2023-05-10T23:09:51;15.71;78.10
71647;SHT31;59706;45.634;11.704;2023-05-10T23:12:18;15.73;77.89
71647;SHT31;59706;45.634;11.704;2023-05-10T23:14:46;15.71;77.90
71647;SHT31;59706;45.634;11.704;2023-05-10T23:17:14;15.70;77.92
71647;SHT31;59706;45.634;11.704;2023-05-10T23:19:42;15.69;77.83
71647;SHT31;59706;45.634;11.704;2023-05-10T23:22:10;15.67;77.80
71647;SHT31;59706;45.634;11.704;2023-05-10T23:24:37;15.66;77.81
71647;SHT31;59706;45.634;11.704;2023-05-10T23:27:05;15.61;77.78
71647;SHT31;59706;45.634;11.704;2023-05-10T23:29:32;15.60;77.86
71647;SHT31;59706;45.634;11.704;2023-05-10T23:32:00;15.60;77.78
71647;SHT31;59706;45.634;11.704;2023-05-10T23:34:27;15.60;77.76
71647;SHT31;59706;45.634;11.704;2023-05-10T23:36:54;15.61;77.53
71647;SHT31;59706;45.634;11.704;2023-05-10T23:39:22;15.58;77.46
71647;SHT31;59706;45.634;11.704;2023-05-10T23:41:49;15.58;77.53
71647;SHT31;59706;45.634;11.704;2023-05-10T23:44:17;15.56;77.52
71647;SHT31;59706;45.634;11.704;2023-05-10T23:46:45;15.54;77.63
71647;SHT31;59706;45.634;11.704;2023-05-10T23:49:12;15.47;77.60
71647;SHT31;59706;45.634;11.704;2023-05-10T23:51:40;15.44;77.78
71647;SHT31;59706;45.634;11.704;2023-05-10T23:54:07;15.43;77.71
71647;SHT31;59706;45.634;11.704;2023-05-10T23:56:34;15.48;77.61
71647;SHT31;59706;45.634;11.704;2023-05-10T23:59:02;15.50;77.61
